M/T Arcadia — SY7849 — position and weather

sailwx.info

Track history (hours):
 
Tides and Currents Weather Stations Pressure Air Temp Water Temp Dewpoint Dewpoint Depression Visibility Wind Speed Wind Dir Waves Ship Positions

M/T Arcadia

Last reported at 2017-Jan-19 20:05 UTC. Time now 2017-Jan-22 10:14 UTC.
Position N 37°19' E 023°22'.

Length 76 m; draft 4.7 m.

Type: Tanker. MMSI: 240560000.

Date/timePositionNaut miles runAvg speedWind from/ knotsBaromVisibWave heightAir tempDewpointWater temp
2017-Jan-19 20:05N 37°19' E 023°22'4 7.2
2017-Jan-19 19:33N 37°21' E 023°26'9 7.1
2017-Jan-19 18:20N 37°27' E 023°34'6 7.7
2017-Jan-19 17:33N 37°33' E 023°31'8 7.6
2017-Jan-19 16:33N 37°39' E 023°24'7 7.0
2017-Jan-19 15:33N 37°42' E 023°17'8 7.7
2017-Jan-19 14:33N 37°49' E 023°12'8 7.6
2017-Jan-19 13:33N 37°55' E 023°06'0 0.4
2017-Jan-19 12:31N 37°55' E 023°05'0 0.0
2017-Jan-19 11:31N 37°55' E 023°05'0 0.0
2017-Jan-19 10:31N 37°55' E 023°05'0 0.0
2017-Jan-19 09:31N 37°55' E 023°05'0 0.0
2017-Jan-19 08:32N 37°55' E 023°05'0 0.0
2017-Jan-19 07:31N 37°55' E 023°05'0 0.0
2017-Jan-19 06:31N 37°55' E 023°05'0 0.0
2017-Jan-19 05:31N 37°55' E 023°05'0 0.0
2017-Jan-19 04:31N 37°55' E 023°05'0 0.0
2017-Jan-19 03:28N 37°55' E 023°05'0 0.0
2017-Jan-19 02:31N 37°55' E 023°05'0 0.0
2017-Jan-19 01:31N 37°55' E 023°05'0 0.0
2017-Jan-19 00:31N 37°55' E 023°05'0 0.0
2017-Jan-18 23:28N 37°55' E 023°05'0 0.0
2017-Jan-18 22:31N 37°55' E 023°05'0 0.0
2017-Jan-18 21:31N 37°55' E 023°05'0 0.0
2017-Jan-18 20:28N 37°55' E 023°05'0 0.0
2017-Jan-18 19:25N 37°55' E 023°05'0 0.0
2017-Jan-18 18:31N 37°55' E 023°05'0 0.0
2017-Jan-18 17:31N 37°55' E 023°05'0 0.4
2017-Jan-18 16:31N 37°55' E 023°06'0 0.0
2017-Jan-18 15:29N 37°55' E 023°06'0 0.0
2017-Jan-18 14:32N 37°55' E 023°06'0 0.0
2017-Jan-18 13:23N 37°55' E 023°06'0 0.1
2017-Jan-18 12:32N 37°55' E 023°06'0 0.0
2017-Jan-18 11:32N 37°55' E 023°06'0 0.1
2017-Jan-18 10:32N 37°55' E 023°06'7 7.3
2017-Jan-18 09:33N 37°49' E 023°12'8 8.0
2017-Jan-18 08:33N 37°42' E 023°17'8 7.8
2017-Jan-18 07:32N 37°38' E 023°25'8 8.1
2017-Jan-18 06:33N 37°32' E 023°32'9 7.3
2017-Jan-18 05:22N 37°24' E 023°36'14 7.9
2017-Jan-18 03:33N 37°10' E 023°31'9 8.3
2017-Jan-18 02:30N 37°03' E 023°26'8 8.2
2017-Jan-18 01:30N 36°55' E 023°21'  
2017-Jan-14 22:33N 36°03' E 023°21'14 6.3
2017-Jan-14 20:15N 36°17' E 023°19'4 6.4
2017-Jan-14 19:33N 36°22' E 023°20'7 6.6
2017-Jan-14 18:33N 36°28' E 023°19'7 7.3
2017-Jan-14 17:33N 36°35' E 023°17'7 7.2
2017-Jan-14 16:33N 36°42' E 023°15'7 6.8
2017-Jan-14 15:33N 36°49' E 023°12'6 6.3
2017-Jan-14 14:32N 36°54' E 023°16'6 6.3
2017-Jan-14 13:33N 36°60' E 023°20'6 5.6
2017-Jan-14 12:32N 37°05' E 023°24'5 4.9
2017-Jan-14 11:33N 37°09' E 023°26'5 4.9
2017-Jan-14 10:33N 37°13' E 023°30'5 5.1
2017-Jan-14 09:33N 37°18' E 023°33'7 5.1
2017-Jan-14 08:07N 37°24' E 023°37'3 5.7
2017-Jan-14 07:33N 37°27' E 023°36'7 6.7
2017-Jan-14 06:33N 37°34' E 023°35'6 6.3
2017-Jan-14 05:33N 37°38' E 023°29'7 7.2
2017-Jan-14 04:33N 37°40' E 023°20'6 5.9
2017-Jan-14 03:33N 37°45' E 023°16'13 1.9
2017-Jan-13 20:18N 37°55' E 023°05'0 0.0
2017-Jan-13 19:24N 37°55' E 023°05'0 0.0
2017-Jan-13 17:30N 37°55' E 023°05'1 0.1
2017-Jan-13 06:27N 37°55' E 023°06'0 0.0
2017-Jan-13 05:32N 37°55' E 023°06'0 0.0
2017-Jan-13 04:27N 37°55' E 023°06'5 6.0
2017-Jan-13 03:33N 37°51' E 023°10'8 8.0
2017-Jan-13 02:34N 37°44' E 023°16'8 7.9
2017-Jan-13 01:33N 37°39' E 023°24'8 8.0
2017-Jan-13 00:33N 37°33' E 023°31'8 8.1
2017-Jan-12 23:33N 37°26' E 023°36'11 7.3
2017-Jan-12 22:07N 37°16' E 023°34'4 7.4
2017-Jan-12 21:33N 37°12' E 023°31'9 8.1
2017-Jan-12 20:27N 37°04' E 023°26'10 8.2
2017-Jan-12 19:15N 36°55' E 023°21'  
2017-Jan-09 20:33N 37°21' E 023°25'  
Track history (hours):
 
Tides and Currents Weather Stations Pressure Air Temp Water Temp Dewpoint Dewpoint Depression Visibility Wind Speed Wind Dir Waves Ship Positions

M/T Arcadia

Last reported at 2017-Jan-19 20:05 UTC. Time now 2017-Jan-22 10:14 UTC.
Position N 37°19' E 023°22'.

Length 76 m; draft 4.7 m.

Type: Tanker. MMSI: 240560000.

Date/timePositionNaut miles runAvg speedWind from/ knotsBaromVisibWave heightAir tempDewpointWater temp
2017-Jan-19 20:05N 37°19' E 023°22'4 7.2
2017-Jan-19 19:33N 37°21' E 023°26'9 7.1
2017-Jan-19 18:20N 37°27' E 023°34'6 7.7
2017-Jan-19 17:33N 37°33' E 023°31'8 7.6
2017-Jan-19 16:33N 37°39' E 023°24'7 7.0
2017-Jan-19 15:33N 37°42' E 023°17'8 7.7
2017-Jan-19 14:33N 37°49' E 023°12'8 7.6
2017-Jan-19 13:33N 37°55' E 023°06'0 0.4
2017-Jan-19 12:31N 37°55' E 023°05'0 0.0
2017-Jan-19 11:31N 37°55' E 023°05'0 0.0
2017-Jan-19 10:31N 37°55' E 023°05'0 0.0
2017-Jan-19 09:31N 37°55' E 023°05'0 0.0
2017-Jan-19 08:32N 37°55' E 023°05'0 0.0
2017-Jan-19 07:31N 37°55' E 023°05'0 0.0
2017-Jan-19 06:31N 37°55' E 023°05'0 0.0
2017-Jan-19 05:31N 37°55' E 023°05'0 0.0
2017-Jan-19 04:31N 37°55' E 023°05'0 0.0
2017-Jan-19 03:28N 37°55' E 023°05'0 0.0
2017-Jan-19 02:31N 37°55' E 023°05'0 0.0
2017-Jan-19 01:31N 37°55' E 023°05'0 0.0
2017-Jan-19 00:31N 37°55' E 023°05'0 0.0
2017-Jan-18 23:28N 37°55' E 023°05'0 0.0
2017-Jan-18 22:31N 37°55' E 023°05'0 0.0
2017-Jan-18 21:31N 37°55' E 023°05'0 0.0
2017-Jan-18 20:28N 37°55' E 023°05'0 0.0
2017-Jan-18 19:25N 37°55' E 023°05'0 0.0
2017-Jan-18 18:31N 37°55' E 023°05'0 0.0
2017-Jan-18 17:31N 37°55' E 023°05'0 0.4
2017-Jan-18 16:31N 37°55' E 023°06'0 0.0
2017-Jan-18 15:29N 37°55' E 023°06'0 0.0
2017-Jan-18 14:32N 37°55' E 023°06'0 0.0
2017-Jan-18 13:23N 37°55' E 023°06'0 0.1
2017-Jan-18 12:32N 37°55' E 023°06'0 0.0
2017-Jan-18 11:32N 37°55' E 023°06'0 0.1
2017-Jan-18 10:32N 37°55' E 023°06'7 7.3
2017-Jan-18 09:33N 37°49' E 023°12'8 8.0
2017-Jan-18 08:33N 37°42' E 023°17'8 7.8
2017-Jan-18 07:32N 37°38' E 023°25'8 8.1
2017-Jan-18 06:33N 37°32' E 023°32'9 7.3
2017-Jan-18 05:22N 37°24' E 023°36'14 7.9
2017-Jan-18 03:33N 37°10' E 023°31'9 8.3
2017-Jan-18 02:30N 37°03' E 023°26'8 8.2
2017-Jan-18 01:30N 36°55' E 023°21'  
2017-Jan-14 22:33N 36°03' E 023°21'14 6.3
2017-Jan-14 20:15N 36°17' E 023°19'4 6.4
2017-Jan-14 19:33N 36°22' E 023°20'7 6.6
2017-Jan-14 18:33N 36°28' E 023°19'7 7.3
2017-Jan-14 17:33N 36°35' E 023°17'7 7.2
2017-Jan-14 16:33N 36°42' E 023°15'7 6.8
2017-Jan-14 15:33N 36°49' E 023°12'6 6.3
2017-Jan-14 14:32N 36°54' E 023°16'6 6.3
2017-Jan-14 13:33N 36°60' E 023°20'6 5.6
2017-Jan-14 12:32N 37°05' E 023°24'5 4.9
2017-Jan-14 11:33N 37°09' E 023°26'5 4.9
2017-Jan-14 10:33N 37°13' E 023°30'5 5.1
2017-Jan-14 09:33N 37°18' E 023°33'7 5.1
2017-Jan-14 08:07N 37°24' E 023°37'3 5.7
2017-Jan-14 07:33N 37°27' E 023°36'7 6.7
2017-Jan-14 06:33N 37°34' E 023°35'6 6.3
2017-Jan-14 05:33N 37°38' E 023°29'7 7.2
2017-Jan-14 04:33N 37°40' E 023°20'6 5.9
2017-Jan-14 03:33N 37°45' E 023°16'13 1.9
2017-Jan-13 20:18N 37°55' E 023°05'0 0.0
2017-Jan-13 19:24N 37°55' E 023°05'0 0.0
2017-Jan-13 17:30N 37°55' E 023°05'1 0.1
2017-Jan-13 06:27N 37°55' E 023°06'0 0.0
2017-Jan-13 05:32N 37°55' E 023°06'0 0.0
2017-Jan-13 04:27N 37°55' E 023°06'5 6.0
2017-Jan-13 03:33N 37°51' E 023°10'8 8.0
2017-Jan-13 02:34N 37°44' E 023°16'8 7.9
2017-Jan-13 01:33N 37°39' E 023°24'8 8.0
2017-Jan-13 00:33N 37°33' E 023°31'8 8.1
2017-Jan-12 23:33N 37°26' E 023°36'11 7.3
2017-Jan-12 22:07N 37°16' E 023°34'4 7.4
2017-Jan-12 21:33N 37°12' E 023°31'9 8.1
2017-Jan-12 20:27N 37°04' E 023°26'10 8.2
2017-Jan-12 19:15N 36°55' E 023°21'  
2017-Jan-09 20:33N 37°21' E 023°25'  

Dump ship's entire track history